createdAt,value
2023-05-17T00:01:48.352Z,95.11
2023-05-17T00:04:14.886Z,95.35
2023-05-17T00:06:41.449Z,94.73
2023-05-17T00:09:08.096Z,95.48
2023-05-17T00:11:34.935Z,96.31
2023-05-17T00:14:01.439Z,94.37
2023-05-17T00:16:27.990Z,93.89
2023-05-17T00:18:54.683Z,93.57
2023-05-17T00:21:21.295Z,92.13
2023-05-17T00:23:47.828Z,94.18
2023-05-17T00:26:14.339Z,94.37
2023-05-17T00:28:41.776Z,93.39
2023-05-17T00:31:08.329Z,92.17
2023-05-17T00:33:34.860Z,93.47
2023-05-17T00:36:01.407Z,92.59
2023-05-17T00:38:27.938Z,93.43
2023-05-17T00:40:54.668Z,93.56
2023-05-17T00:43:21.248Z,94.84
2023-05-17T00:45:49.366Z,95.20
2023-05-17T00:48:16.359Z,95.14
2023-05-17T00:50:43.202Z,95.23
2023-05-17T00:53:09.937Z,97.48
2023-05-17T00:55:36.466Z,98.10
2023-05-17T00:58:02.987Z,97.95
2023-05-17T01:00:29.574Z,97.00
2023-05-17T01:02:56.237Z,96.84
2023-05-17T01:05:23.003Z,96.95
2023-05-17T01:07:49.484Z,96.04
2023-05-17T01:10:16.169Z,94.77
2023-05-17T01:13:01.577Z,93.74
2023-05-17T01:15:36.733Z,92.81
2023-05-17T01:18:06.296Z,92.89
2023-05-17T01:20:41.442Z,91.22
2023-05-17T01:23:26.892Z,91.53
2023-05-17T01:26:12.126Z,90.86
2023-05-17T01:28:39.102Z,91.37
2023-05-17T01:31:06.488Z,90.75
2023-05-17T01:33:34.116Z,89.10
2023-05-17T01:36:00.736Z,88.55
2023-05-17T01:38:27.284Z,88.64
2023-05-17T01:41:12.652Z,88.36
2023-05-17T01:43:48.060Z,88.34
2023-05-17T01:46:17.653Z,90.68
2023-05-17T01:48:48.318Z,91.37
2023-05-17T01:51:18.910Z,90.74
2023-05-17T01:53:49.444Z,91.92
2023-05-17T01:56:19.926Z,92.77
2023-05-17T01:58:47.488Z,90.02
2023-05-17T02:01:18.619Z,90.16
2023-05-17T02:03:48.851Z,89.30
2023-05-17T02:06:15.759Z,90.42
2023-05-17T02:08:42.275Z,89.18
2023-05-17T02:11:08.807Z,87.36
2023-05-17T02:13:35.344Z,85.78
2023-05-17T02:16:02.594Z,87.59
2023-05-17T02:18:29.537Z,85.65
2023-05-17T02:20:56.190Z,85.77
2023-05-17T02:23:24.931Z,86.55
2023-05-17T02:25:52.533Z,85.65
2023-05-17T02:28:19.102Z,87.18
2023-05-17T02:30:46.122Z,85.56
2023-05-17T02:33:13.357Z,86.22
2023-05-17T02:35:39.959Z,86.54
2023-05-17T02:38:06.546Z,85.69
2023-05-17T02:40:33.085Z,86.77
2023-05-17T02:43:02.574Z,85.09
2023-05-17T02:45:29.407Z,83.82
2023-05-17T02:47:56.165Z,83.69
2023-05-17T02:50:22.983Z,82.78
2023-05-17T02:52:49.631Z,82.42
2023-05-17T02:55:16.298Z,82.55
2023-05-17T02:57:43.115Z,81.33
2023-05-17T03:00:10.205Z,80.78
2023-05-17T03:02:37.070Z,81.27
2023-05-17T03:05:05.205Z,81.62
2023-05-17T03:07:32.109Z,82.27
2023-05-17T03:09:58.681Z,82.53
2023-05-17T03:12:29.836Z,81.12
2023-05-17T03:14:57.160Z,80.35
2023-05-17T03:17:24.101Z,80.47
2023-05-17T03:19:50.781Z,81.03
2023-05-17T03:22:17.451Z,81.87
2023-05-17T03:24:44.038Z,82.77
2023-05-17T03:27:10.687Z,82.49
2023-05-17T03:29:37.334Z,81.93
2023-05-17T03:32:04.738Z,82.24
2023-05-17T03:34:31.542Z,80.39
2023-05-17T03:36:58.391Z,82.16
2023-05-17T03:39:25.099Z,82.03
2023-05-17T03:41:51.925Z,80.18
2023-05-17T03:44:19.122Z,80.22
2023-05-17T03:46:46.269Z,80.42
2023-05-17T03:49:13.957Z,80.70
2023-05-17T03:51:40.936Z,79.83
2023-05-17T03:54:07.507Z,78.03
2023-05-17T03:56:34.015Z,78.91
2023-05-17T03:59:00.615Z,77.74
2023-05-17T04:01:27.470Z,77.38
2023-05-17T04:03:54.043Z,77.13
2023-05-17T04:06:21.925Z,77.78
2023-05-17T04:08:48.898Z,75.51
2023-05-17T04:11:15.488Z,73.32
2023-05-17T04:13:43.258Z,74.95
2023-05-17T04:16:10.449Z,73.34
2023-05-17T04:18:40.238Z,72.41
2023-05-17T04:21:07.067Z,73.68
2023-05-17T04:23:34.999Z,74.35
2023-05-17T04:26:03.221Z,73.36
2023-05-17T04:28:31.888Z,71.62
2023-05-17T04:30:58.531Z,71.56
2023-05-17T04:33:26.875Z,72.16
2023-05-17T04:35:56.810Z,72.79
2023-05-17T04:38:25.143Z,71.48
2023-05-17T04:40:51.888Z,70.35
2023-05-17T04:43:18.802Z,69.99
2023-05-17T04:45:46.739Z,70.00
2023-05-17T04:48:13.540Z,70.60
2023-05-17T04:50:40.742Z,69.20
2023-05-17T04:53:07.304Z,69.24
2023-05-17T04:55:36.386Z,68.12
2023-05-17T04:58:03.300Z,67.05
2023-05-17T05:00:31.108Z,67.79
2023-05-17T05:03:04.982Z,68.25
2023-05-17T05:05:32.305Z,67.81
2023-05-17T05:07:58.973Z,67.03
2023-05-17T05:10:28.750Z,67.51
2023-05-17T05:12:56.101Z,67.68
2023-05-17T05:15:23.358Z,67.47
2023-05-17T05:17:55.319Z,68.39
2023-05-17T05:20:22.112Z,65.92
2023-05-17T05:22:48.659Z,64.93
2023-05-17T05:25:17.467Z,64.43
2023-05-17T05:27:44.584Z,65.68
2023-05-17T05:30:13.344Z,66.78
2023-05-17T05:32:39.961Z,64.97
2023-05-17T05:35:06.716Z,64.21
2023-05-17T05:37:33.671Z,63.29
2023-05-17T05:40:00.242Z,62.85
2023-05-17T05:42:27.726Z,61.60
2023-05-17T05:44:54.340Z,63.30
2023-05-17T05:47:22.389Z,61.18
2023-05-17T05:49:48.936Z,62.45
2023-05-17T05:52:15.508Z,62.55
2023-05-17T05:54:43.209Z,61.09
2023-05-17T05:57:09.756Z,61.16
2023-05-17T05:59:36.415Z,61.06
2023-05-17T06:02:04.033Z,60.12
2023-05-17T06:04:41.180Z,61.46
2023-05-17T06:07:11.469Z,61.28
2023-05-17T06:09:37.944Z,60.66
2023-05-17T06:12:04.526Z,61.54
2023-05-17T06:14:31.073Z,59.95
2023-05-17T06:16:57.640Z,59.66
2023-05-17T06:19:24.294Z,58.02
2023-05-17T06:21:51.202Z,60.30
2023-05-17T06:24:17.831Z,59.14
2023-05-17T06:26:44.383Z,59.44
2023-05-17T06:29:11.077Z,57.71
2023-05-17T06:31:37.660Z,59.31
2023-05-17T06:34:04.364Z,57.78
2023-05-17T06:36:32.381Z,58.12
2023-05-17T06:38:59.541Z,56.91
2023-05-17T06:41:26.069Z,58.40
2023-05-17T06:43:52.587Z,57.40
2023-05-17T06:46:19.067Z,59.22
2023-05-17T06:48:47.432Z,58.24
2023-05-17T06:51:16.272Z,58.39
2023-05-17T06:53:42.771Z,57.17
2023-05-17T06:56:09.252Z,57.75
2023-05-17T06:58:35.924Z,56.63
2023-05-17T07:01:02.451Z,57.29
2023-05-17T07:03:29.266Z,57.19
2023-05-17T07:05:55.894Z,56.63
2023-05-17T07:08:22.349Z,56.21
2023-05-17T07:10:51.126Z,56.93
2023-05-17T07:13:17.662Z,56.95
2023-05-17T07:15:44.272Z,56.24
2023-05-17T07:18:10.951Z,55.17
2023-05-17T07:20:37.620Z,55.27
2023-05-17T07:23:04.124Z,55.31
2023-05-17T07:25:31.638Z,54.87
2023-05-17T07:27:58.188Z,55.10
2023-05-17T07:30:24.849Z,55.43
2023-05-17T07:32:51.857Z,56.55
2023-05-17T07:35:26.260Z,56.08
2023-05-17T07:37:52.865Z,54.41
2023-05-17T07:40:19.394Z,54.16
2023-05-17T07:42:45.848Z,53.89
2023-05-17T07:45:12.358Z,52.54
2023-05-17T07:47:39.222Z,54.39
2023-05-17T07:50:06.093Z,53.49
2023-05-17T07:52:32.643Z,52.43
2023-05-17T07:54:59.158Z,52.77
2023-05-17T07:57:27.263Z,53.25
2023-05-17T07:59:53.772Z,51.98
2023-05-17T08:02:20.544Z,51.93
2023-05-17T08:04:47.185Z,52.79
2023-05-17T08:07:13.712Z,52.12
2023-05-17T08:09:40.373Z,51.38
2023-05-17T08:12:06.903Z,52.63
2023-05-17T08:14:33.464Z,51.28
2023-05-17T08:17:00.070Z,50.68
2023-05-17T08:19:26.712Z,51.26
2023-05-17T08:21:53.402Z,50.95
2023-05-17T08:24:22.481Z,51.48
2023-05-17T08:26:49.034Z,51.91
2023-05-17T08:29:15.606Z,52.61
2023-05-17T08:31:42.291Z,52.97
2023-05-17T08:34:08.940Z,52.25
2023-05-17T08:36:35.689Z,52.38
2023-05-17T08:39:02.380Z,52.41
2023-05-17T08:41:29.412Z,51.42
2023-05-17T08:43:56.954Z,52.59
2023-05-17T08:46:23.938Z,52.44
2023-05-17T08:48:51.855Z,51.10
2023-05-17T08:51:19.462Z,51.39
2023-05-17T08:53:47.525Z,51.42
2023-05-17T08:56:15.822Z,50.65
2023-05-17T08:58:55.607Z,49.85
2023-05-17T09:01:26.048Z,52.06
2023-05-17T09:03:53.826Z,51.98
2023-05-17T09:06:21.623Z,52.85
2023-05-17T09:08:51.157Z,52.90
2023-05-17T09:11:28.036Z,54.65
2023-05-17T09:13:57.697Z,54.56
2023-05-17T09:16:24.205Z,54.36
2023-05-17T09:18:57.734Z,54.01
2023-05-17T09:21:25.066Z,54.08
2023-05-17T09:24:04.777Z,52.41
2023-05-17T09:26:43.043Z,51.05
2023-05-17T09:29:13.835Z,51.03
2023-05-17T09:31:41.304Z,50.60
2023-05-17T09:34:08.762Z,50.39
2023-05-17T09:36:36.235Z,50.30
2023-05-17T09:39:06.697Z,50.25
2023-05-17T09:41:56.204Z,49.31
2023-05-17T09:44:25.439Z,49.98
2023-05-17T09:46:52.844Z,49.72
2023-05-17T09:49:19.381Z,51.04
2023-05-17T09:51:47.362Z,50.74
2023-05-17T09:54:14.313Z,50.91
2023-05-17T09:56:41.342Z,50.59
2023-05-17T09:59:11.599Z,50.08
2023-05-17T10:01:40.552Z,50.21
2023-05-17T10:04:09.128Z,51.82
2023-05-17T10:06:45.989Z,51.55
2023-05-17T10:09:14.761Z,50.20
2023-05-17T10:11:46.765Z,49.65
2023-05-17T10:14:18.497Z,50.35
2023-05-17T10:16:45.422Z,49.73
2023-05-17T10:19:12.306Z,48.46
2023-05-17T10:21:39.569Z,48.88
2023-05-17T10:24:06.507Z,49.21
2023-05-17T10:26:33.505Z,47.98
2023-05-17T10:29:01.416Z,47.69
2023-05-17T10:31:33.209Z,47.81
2023-05-17T10:34:04.086Z,47.79
2023-05-17T10:36:31.206Z,48.17
2023-05-17T10:38:58.493Z,47.44
2023-05-17T10:41:27.519Z,47.16
2023-05-17T10:43:54.677Z,48.59
2023-05-17T10:46:23.420Z,49.63
2023-05-17T10:48:53.991Z,50.00
2023-05-17T10:51:24.883Z,50.20
2023-05-17T10:54:11.625Z,48.96
2023-05-17T10:56:46.890Z,49.41
2023-05-17T10:59:21.605Z,51.03
2023-05-17T11:01:50.681Z,49.84
2023-05-17T11:04:21.585Z,48.43
2023-05-17T11:06:48.185Z,49.29
2023-05-17T11:09:18.765Z,48.81
2023-05-17T11:12:04.756Z,49.33
2023-05-17T11:14:46.313Z,49.06
2023-05-17T11:17:17.896Z,49.05
2023-05-17T11:20:10.897Z,48.89
2023-05-17T11:22:41.086Z,48.71
2023-05-17T11:25:12.223Z,48.63
2023-05-17T11:27:39.851Z,49.10
2023-05-17T11:30:29.873Z,49.28
2023-05-17T11:32:59.924Z,49.70
2023-05-17T11:35:27.577Z,48.82
2023-05-17T11:38:11.661Z,48.17
2023-05-17T11:40:38.249Z,49.84
2023-05-17T11:43:18.464Z,48.54
2023-05-17T11:45:46.170Z,48.42
2023-05-17T11:48:13.183Z,48.17
2023-05-17T11:50:40.566Z,48.38
2023-05-17T11:53:07.898Z,49.34
2023-05-17T11:55:37.834Z,51.34
2023-05-17T11:58:05.652Z,49.25
2023-05-17T12:00:32.561Z,50.28
2023-05-17T12:02:59.624Z,49.70
2023-05-17T12:05:26.257Z,49.30
2023-05-17T12:07:55.703Z,50.89
2023-05-17T12:10:22.226Z,50.24
2023-05-17T12:12:48.737Z,50.09
2023-05-17T12:15:18.426Z,47.96
2023-05-17T12:17:45.495Z,48.98
2023-05-17T12:20:12.541Z,49.18
2023-05-17T12:22:51.861Z,48.42
2023-05-17T12:25:25.320Z,47.87
2023-05-17T12:27:52.170Z,48.67
2023-05-17T12:30:18.913Z,48.25
2023-05-17T12:32:46.037Z,48.65
2023-05-17T12:35:12.943Z,48.37
2023-05-17T12:37:39.691Z,49.16
2023-05-17T12:40:07.018Z,49.67
2023-05-17T12:42:33.588Z,50.95
2023-05-17T12:45:00.700Z,49.85
2023-05-17T12:47:33.690Z,49.08
2023-05-17T12:50:00.589Z,49.43
2023-05-17T12:52:32.949Z,50.17
2023-05-17T12:54:59.478Z,51.10
2023-05-17T12:57:25.974Z,49.92
2023-05-17T12:59:52.973Z,50.94
2023-05-17T13:02:20.147Z,51.61
2023-05-17T13:04:47.414Z,51.78
2023-05-17T13:07:21.420Z,52.61
2023-05-17T13:09:48.451Z,52.64
2023-05-17T13:12:22.253Z,53.44
2023-05-17T13:14:51.719Z,53.57
2023-05-17T13:17:19.238Z,53.31
2023-05-17T13:19:46.095Z,53.08
2023-05-17T13:22:12.660Z,54.28
2023-05-17T13:24:39.897Z,55.08
2023-05-17T13:27:07.311Z,56.61
2023-05-17T13:29:39.705Z,57.00
2023-05-17T13:32:07.970Z,54.54
2023-05-17T13:34:35.559Z,54.61
2023-05-17T13:37:02.185Z,57.39
2023-05-17T13:39:28.775Z,57.25
2023-05-17T13:41:56.729Z,58.89
2023-05-17T13:44:23.411Z,56.40
2023-05-17T13:46:49.920Z,57.65
2023-05-17T13:49:17.319Z,55.70
2023-05-17T13:51:44.368Z,55.89
2023-05-17T13:54:11.578Z,54.94
2023-05-17T13:56:38.169Z,54.65
2023-05-17T13:59:04.708Z,55.03
2023-05-17T14:01:31.240Z,55.09
2023-05-17T14:03:57.874Z,55.99
2023-05-17T14:06:24.675Z,55.38
2023-05-17T14:08:53.214Z,53.81
2023-05-17T14:11:19.863Z,54.78
2023-05-17T14:13:46.451Z,55.86
2023-05-17T14:16:13.763Z,56.56
2023-05-17T14:18:40.403Z,57.37
2023-05-17T14:21:08.333Z,55.05
2023-05-17T14:23:35.025Z,54.71
2023-05-17T14:26:02.856Z,54.54
2023-05-17T14:28:29.423Z,53.59
2023-05-17T14:30:56.231Z,54.16
2023-05-17T14:36:25.403Z,54.75
2023-05-17T14:38:51.933Z,55.19
2023-05-17T14:41:18.620Z,54.54
2023-05-17T14:43:45.432Z,53.99
2023-05-17T14:46:11.960Z,54.66
2023-05-17T14:48:38.470Z,54.57
2023-05-17T14:51:05.211Z,56.07
2023-05-17T14:53:31.992Z,54.42
2023-05-17T14:55:58.984Z,54.73
2023-05-17T14:58:25.976Z,54.19
2023-05-17T15:01:05.362Z,54.69
2023-05-17T15:03:34.088Z,56.29
2023-05-17T15:06:01.697Z,56.73
2023-05-17T15:08:29.908Z,55.02
2023-05-17T15:10:57.694Z,53.82
2023-05-17T15:13:24.911Z,53.85
2023-05-17T15:15:52.357Z,54.34
2023-05-17T15:18:19.040Z,52.23
2023-05-17T15:20:46.090Z,51.63
2023-05-17T15:23:12.605Z,53.19
2023-05-17T15:25:39.088Z,54.20
2023-05-17T15:28:05.594Z,53.30
2023-05-17T15:30:32.120Z,54.62
2023-05-17T15:32:59.062Z,53.87
2023-05-17T15:35:25.801Z,53.62
2023-05-17T15:37:53.586Z,51.98
2023-05-17T15:40:24.521Z,53.72
2023-05-17T15:42:52.362Z,54.37
2023-05-17T15:45:21.219Z,53.51
2023-05-17T15:47:48.832Z,53.60
2023-05-17T15:50:15.489Z,53.72
2023-05-17T15:52:42.223Z,54.03
2023-05-17T15:55:09.682Z,54.63
2023-05-17T15:57:36.523Z,54.51
2023-05-17T16:00:03.634Z,55.45
2023-05-17T16:02:31.635Z,54.58
2023-05-17T16:04:58.994Z,55.82
2023-05-17T16:07:27.326Z,54.88
2023-05-17T16:09:53.904Z,55.09
2023-05-17T16:12:20.474Z,56.20
2023-05-17T16:14:47.008Z,55.94
2023-05-17T16:17:13.547Z,56.15
2023-05-17T16:19:40.125Z,56.64
2023-05-17T16:22:06.972Z,58.18
2023-05-17T16:24:33.804Z,56.38
2023-05-17T16:27:00.353Z,56.20
2023-05-17T16:29:27.036Z,58.30
2023-05-17T16:31:53.658Z,57.67
2023-05-17T16:34:20.291Z,58.25
2023-05-17T16:36:48.234Z,58.20
2023-05-17T16:39:14.765Z,57.72
2023-05-17T16:41:41.359Z,59.20
2023-05-17T16:44:08.003Z,58.87
2023-05-17T16:46:34.551Z,60.02
2023-05-17T16:49:01.258Z,59.98
2023-05-17T16:51:27.746Z,59.88
2023-05-17T16:53:54.255Z,59.86
2023-05-17T16:56:22.312Z,60.53
2023-05-17T16:58:48.862Z,60.93
2023-05-17T17:01:15.983Z,60.78
2023-05-17T17:03:42.570Z,60.97
2023-05-17T17:06:09.188Z,61.18
2023-05-17T17:08:35.690Z,61.30
2023-05-17T17:11:02.793Z,60.93
2023-05-17T17:13:29.307Z,59.42
2023-05-17T17:15:55.898Z,60.30
2023-05-17T17:18:22.581Z,59.82
2023-05-17T17:20:49.109Z,60.88
2023-05-17T17:23:15.726Z,60.42
2023-05-17T17:25:42.282Z,59.91
2023-05-17T17:28:09.411Z,59.85
2023-05-17T17:30:36.130Z,59.96
2023-05-17T17:33:02.886Z,61.26
2023-05-17T17:35:29.481Z,60.86
2023-05-17T17:37:56.360Z,61.91
2023-05-17T17:40:23.427Z,61.55
2023-05-17T17:42:49.946Z,60.62
2023-05-17T17:45:16.469Z,61.38
2023-05-17T17:47:44.906Z,61.25
2023-05-17T17:50:11.433Z,62.68
2023-05-17T17:52:37.945Z,61.79
2023-05-17T17:55:05.012Z,61.40
2023-05-17T17:57:33.411Z,61.20
2023-05-17T17:59:59.884Z,61.24
2023-05-17T18:02:26.517Z,60.25
2023-05-17T18:04:53.123Z,60.47
2023-05-17T18:07:19.738Z,61.26
2023-05-17T18:09:46.279Z,60.23
2023-05-17T18:12:12.792Z,60.45
2023-05-17T18:14:39.393Z,60.68
2023-05-17T18:17:07.995Z,60.41
2023-05-17T18:19:34.541Z,60.36
2023-05-17T18:22:01.075Z,61.44
2023-05-17T18:24:27.835Z,60.10
2023-05-17T18:26:54.402Z,60.63
2023-05-17T18:29:21.108Z,60.83
2023-05-17T18:31:47.895Z,61.34
2023-05-17T18:34:14.562Z,60.75
2023-05-17T18:36:42.288Z,61.84
2023-05-17T18:39:08.841Z,61.58
2023-05-17T18:41:35.566Z,62.87
2023-05-17T18:44:02.845Z,61.29
2023-05-17T18:46:29.497Z,60.67
2023-05-17T18:48:56.065Z,60.98
2023-05-17T18:51:22.632Z,61.57
2023-05-17T18:53:49.202Z,60.69
2023-05-17T18:56:22.491Z,60.04
2023-05-17T18:58:55.102Z,60.99
2023-05-17T19:01:21.745Z,60.37
2023-05-17T19:03:51.376Z,62.05
2023-05-17T19:06:19.595Z,61.11
2023-05-17T19:08:46.297Z,61.58
2023-05-17T19:11:12.815Z,60.21
2023-05-17T19:13:39.323Z,61.20
2023-05-17T19:16:06.003Z,61.31
2023-05-17T19:18:32.654Z,60.99
2023-05-17T19:20:59.192Z,60.87
2023-05-17T19:23:25.883Z,60.13
2023-05-17T19:25:53.486Z,59.75
2023-05-17T19:28:20.001Z,59.01
2023-05-17T19:30:46.705Z,59.70
2023-05-17T19:33:13.329Z,60.06
2023-05-17T19:35:40.911Z,59.27
2023-05-17T19:38:07.561Z,59.88
2023-05-17T19:40:34.308Z,59.58
2023-05-17T19:43:03.924Z,58.72
2023-05-17T19:45:30.769Z,58.84
2023-05-17T19:47:57.324Z,59.38
2023-05-17T19:50:24.465Z,59.33
2023-05-17T19:52:51.248Z,59.23
2023-05-17T19:55:22.042Z,58.14
2023-05-17T19:57:48.882Z,58.94
2023-05-17T20:00:15.868Z,58.50
2023-05-17T20:02:42.674Z,58.49
2023-05-17T20:05:09.338Z,58.58
2023-05-17T20:07:36.229Z,58.23
2023-05-17T20:10:02.772Z,57.96
2023-05-17T20:12:29.268Z,57.64
2023-05-17T20:14:55.970Z,57.59
2023-05-17T20:17:22.444Z,57.43
2023-05-17T20:19:49.049Z,57.27
2023-05-17T20:22:15.801Z,57.06
2023-05-17T20:24:44.037Z,57.11
2023-05-17T20:27:11.040Z,57.82
2023-05-17T20:29:38.319Z,57.81
2023-05-17T20:32:05.879Z,58.67
2023-05-17T20:34:33.421Z,57.42
2023-05-17T20:37:01.062Z,57.45
2023-05-17T20:39:31.076Z,57.52
2023-05-17T20:41:58.335Z,56.86
2023-05-17T20:44:25.885Z,57.46
2023-05-17T20:46:52.683Z,55.88
2023-05-17T20:49:19.197Z,56.54
2023-05-17T20:51:46.139Z,56.06
2023-05-17T20:54:12.885Z,56.78
2023-05-17T20:56:40.071Z,56.62
2023-05-17T20:59:07.217Z,56.05
2023-05-17T21:01:34.216Z,56.11
2023-05-17T21:04:01.382Z,55.72
2023-05-17T21:06:30.226Z,56.06
2023-05-17T21:09:02.222Z,56.09
2023-05-17T21:11:29.587Z,55.94
2023-05-17T21:13:57.889Z,55.58
2023-05-17T21:16:24.520Z,55.51
2023-05-17T21:18:51.166Z,54.87
2023-05-17T21:21:18.147Z,54.61
2023-05-17T21:23:44.647Z,54.67
2023-05-17T21:26:11.148Z,55.81
2023-05-17T21:28:37.636Z,55.26
2023-05-17T21:31:04.377Z,55.84
2023-05-17T21:33:32.372Z,55.65
2023-05-17T21:35:59.125Z,55.24
2023-05-17T21:38:25.578Z,55.11
2023-05-17T21:40:52.131Z,55.14
2023-05-17T21:43:18.772Z,54.98
2023-05-17T21:45:45.443Z,56.29
2023-05-17T21:48:12.106Z,55.52
2023-05-17T21:50:38.645Z,55.52
2023-05-17T21:53:05.141Z,55.36
2023-05-17T21:55:41.022Z,55.96
2023-05-17T21:58:19.398Z,55.88
2023-05-17T22:00:45.958Z,55.71
2023-05-17T22:03:12.669Z,56.03
2023-05-17T22:05:39.351Z,55.96
2023-05-17T22:08:05.941Z,55.42
2023-05-17T22:10:32.625Z,55.58
2023-05-17T22:13:02.108Z,55.64
2023-05-17T22:15:28.695Z,56.14
2023-05-17T22:17:55.267Z,56.11
2023-05-17T22:20:23.789Z,56.05
2023-05-17T22:22:50.676Z,56.34
2023-05-17T22:25:17.790Z,56.00
2023-05-17T22:27:45.360Z,55.84
2023-05-17T22:30:12.143Z,54.93
2023-05-17T22:32:40.272Z,55.12
2023-05-17T22:35:07.171Z,55.41
2023-05-17T22:37:33.954Z,55.75
2023-05-17T22:40:00.681Z,55.35
2023-05-17T22:42:27.254Z,56.71
2023-05-17T22:44:53.818Z,56.15
2023-05-17T22:47:22.899Z,56.52
2023-05-17T22:49:52.589Z,56.48
2023-05-17T22:52:19.856Z,56.65
2023-05-17T22:54:46.478Z,56.09
2023-05-17T22:57:12.977Z,56.03
2023-05-17T22:59:39.620Z,56.08
2023-05-17T23:02:06.352Z,55.59
2023-05-17T23:04:33.182Z,55.74
2023-05-17T23:07:03.393Z,55.73
2023-05-17T23:09:30.038Z,55.02
2023-05-17T23:11:57.027Z,55.22
2023-05-17T23:14:24.102Z,54.99
2023-05-17T23:16:50.706Z,53.77
2023-05-17T23:19:18.129Z,53.90
2023-05-17T23:21:46.319Z,53.35
2023-05-17T23:24:14.033Z,53.41
2023-05-17T23:26:41.446Z,52.98
2023-05-17T23:29:10.604Z,54.06
2023-05-17T23:31:37.582Z,55.38
2023-05-17T23:34:04.393Z,54.15
2023-05-17T23:36:30.920Z,54.50
2023-05-17T23:38:57.437Z,54.03
2023-05-17T23:41:25.396Z,54.60
2023-05-17T23:43:52.226Z,54.81
2023-05-17T23:46:19.803Z,54.50
2023-05-17T23:48:52.551Z,54.68
2023-05-17T23:51:19.873Z,54.33
2023-05-17T23:53:48.689Z,55.00
2023-05-17T23:56:18.121Z,54.01
2023-05-17T23:58:47.858Z,54.36
